Time;durP1;ratioP1;P1;durP2;ratioP2;P2;SDS_P1;SDS_P2;PMS_P1;PMS_P2;Temp;Humidity;BMP_temperature;BMP_pressure;BME280_temperature;BME280_humidity;BME280_pressure;Samples;Min_cycle;Max_cycle;Signal;HPM_P1;HPM_P2
2023/03/12 00:01:13;;;;;;;1.10;0.70;;;1.80;99.90;;;;;;5003398;28;20447;-63
2023/03/12 00:03:41;;;;;;;1.27;0.83;;;1.70;99.90;;;;;;4997990;28;20482;-58
2023/03/12 00:06:08;;;;;;;1.73;0.90;;;1.80;99.90;;;;;;5011852;28;20522;-56
2023/03/12 00:08:35;;;;;;;1.37;0.90;;;1.70;99.90;;;;;;5006208;28;20494;-51
2023/03/12 00:11:08;;;;;;;1.00;0.70;;;1.70;99.90;;;;;;5008943;28;20489;-60
2023/03/12 00:13:36;;;;;;;1.23;1.00;;;1.70;99.90;;;;;;5015891;28;20441;-63
2023/03/12 00:16:11;;;;;;;1.53;1.17;;;1.70;99.90;;;;;;5016082;28;20446;-60
2023/03/12 00:18:38;;;;;;;2.20;2.00;;;1.80;99.90;;;;;;5004428;28;20457;-62
2023/03/12 00:21:07;;;;;;;1.70;1.13;;;1.70;99.90;;;;;;5004028;28;20430;-60
2023/03/12 00:23:36;;;;;;;2.60;1.13;;;1.70;99.90;;;;;;4997139;28;20457;-62
2023/03/12 00:26:07;;;;;;;1.17;0.90;;;1.70;99.90;;;;;;4997107;28;20503;-64
2023/03/12 00:28:39;;;;;;;1.23;1.00;;;1.80;99.90;;;;;;4996835;28;20521;-56
2023/03/12 00:31:15;;;;;;;4.33;2.40;;;1.80;99.90;;;;;;5002045;28;20486;-59
2023/03/12 00:33:44;;;;;;;1.73;0.90;;;1.80;99.90;;;;;;4995864;28;20431;-59
2023/03/12 00:36:14;;;;;;;4.10;1.20;;;1.80;99.90;;;;;;5008399;28;20450;-61
2023/03/12 00:38:40;;;;;;;2.43;1.20;;;1.80;99.90;;;;;;5003935;28;20466;-55
2023/03/12 00:41:07;;;;;;;2.17;1.33;;;1.80;99.90;;;;;;4996817;28;20506;-61
2023/03/12 00:43:36;;;;;;;3.50;0.97;;;1.80;99.90;;;;;;4996884;28;20462;-56
2023/03/12 00:46:05;;;;;;;10.10;1.53;;;1.80;99.90;;;;;;4997495;28;20430;-54
2023/03/12 00:48:35;;;;;;;2.40;1.10;;;1.80;99.90;;;;;;4996317;28;20467;-61
2023/03/12 00:51:01;;;;;;;40.70;2.30;;;1.80;99.90;;;;;;4996399;28;20477;-65
2023/03/12 00:53:28;;;;;;;4.60;1.20;;;1.80;99.90;;;;;;4997387;28;20434;-60
2023/03/12 00:55:55;;;;;;;1.77;1.13;;;1.80;99.90;;;;;;4996564;28;20458;-60
2023/03/12 00:58:22;;;;;;;1.83;1.00;;;1.80;99.90;;;;;;4995350;28;20473;-56
2023/03/12 01:00:50;;;;;;;1.20;0.77;;;1.80;99.90;;;;;;4996917;28;20427;-55
2023/03/12 01:03:19;;;;;;;2.23;1.03;;;1.80;99.90;;;;;;4996602;28;20474;-60
2023/03/12 01:05:52;;;;;;;1.27;0.90;;;1.80;99.90;;;;;;5004219;28;20457;-59
2023/03/12 01:08:20;;;;;;;2.23;1.23;;;1.80;99.90;;;;;;5006337;28;20463;-56
2023/03/12 01:10:47;;;;;;;2.30;0.70;;;1.80;99.90;;;;;;5000340;28;20498;-60
2023/03/12 01:13:14;;;;;;;1.67;0.87;;;1.90;99.90;;;;;;4995893;28;20443;-61
2023/03/12 01:15:41;;;;;;;1.47;1.07;;;1.90;99.90;;;;;;5001592;28;20445;-60
2023/03/12 01:18:09;;;;;;;2.80;0.97;;;1.90;99.90;;;;;;5007932;28;20462;-61
2023/03/12 01:20:36;;;;;;;3.20;1.40;;;1.90;99.90;;;;;;5001239;28;20453;-61
2023/03/12 01:23:03;;;;;;;1.30;1.00;;;1.90;99.90;;;;;;5015281;28;20481;-54
2023/03/12 01:25:30;;;;;;;2.10;1.20;;;2.00;99.90;;;;;;5016553;28;20492;-58
2023/03/12 01:27:57;;;;;;;1.17;0.77;;;2.00;99.90;;;;;;5013238;28;20462;-56
2023/03/12 01:30:24;;;;;;;3.67;1.73;;;2.00;99.90;;;;;;5003498;28;20478;-61
2023/03/12 01:32:52;;;;;;;1.13;0.80;;;2.00;99.90;;;;;;5001002;28;20451;-61
2023/03/12 01:35:20;;;;;;;2.00;1.00;;;2.00;99.90;;;;;;5003512;28;20435;-58
2023/03/12 01:37:47;;;;;;;1.47;0.87;;;2.00;99.90;;;;;;5015325;28;20451;-56
2023/03/12 01:40:15;;;;;;;2.60;1.27;;;2.10;99.90;;;;;;4999826;28;20483;-53
2023/03/12 01:42:42;;;;;;;1.83;1.00;;;2.10;99.90;;;;;;4999754;28;20451;-58
2023/03/12 01:45:42;;;;;;;1.50;1.20;;;2.00;99.90;;;;;;4998670;28;20475;-65
2023/03/12 01:48:10;;;;;;;1.00;0.80;;;1.90;99.90;;;;;;5010193;28;20450;-62
2023/03/12 01:50:38;;;;;;;1.50;0.93;;;1.90;99.90;;;;;;4999704;28;20502;-60
2023/03/12 01:53:05;;;;;;;3.27;1.30;;;1.90;99.90;;;;;;4999285;28;20462;-58
2023/03/12 01:55:37;;;;;;;3.30;1.40;;;1.90;99.90;;;;;;4998742;28;20439;-63
2023/03/12 01:58:04;;;;;;;1.73;1.10;;;2.00;99.90;;;;;;4997976;28;20451;-63
2023/03/12 02:00:34;;;;;;;2.23;0.97;;;2.00;99.90;;;;;;4999094;28;20426;-60
2023/03/12 02:03:07;;;;;;;3.20;1.23;;;2.00;99.90;;;;;;4998812;28;20455;-60
2023/03/12 02:05:42;;;;;;;1.73;1.10;;;2.00;99.90;;;;;;4999275;28;20434;-60
2023/03/12 02:08:09;;;;;;;3.20;1.73;;;2.00;99.90;;;;;;4998163;28;20462;-61
2023/03/12 02:10:36;;;;;;;3.33;1.80;;;2.10;99.90;;;;;;4998488;28;20475;-65
2023/03/12 02:13:03;;;;;;;2.70;1.27;;;2.10;99.90;;;;;;5019048;28;20458;-61
2023/03/12 02:15:31;;;;;;;2.47;1.80;;;2.00;99.90;;;;;;5018218;28;20454;-59
2023/03/12 02:17:58;;;;;;;1.77;1.40;;;2.10;99.90;;;;;;5012362;28;20451;-60
2023/03/12 02:20:36;;;;;;;2.10;1.40;;;2.10;99.90;;;;;;4997441;28;20462;-64
2023/03/12 02:23:09;;;;;;;2.90;0.90;;;2.10;99.90;;;;;;5017704;28;20442;-59
2023/03/12 02:25:41;;;;;;;3.17;1.17;;;2.10;99.90;;;;;;5017113;28;20498;-65
2023/03/12 02:28:13;;;;;;;5.53;1.27;;;2.20;99.90;;;;;;5009759;28;20482;-58
2023/03/12 02:30:41;;;;;;;1.60;1.20;;;2.20;99.90;;;;;;4999531;28;20481;-66
2023/03/12 02:33:10;;;;;;;3.00;2.63;;;2.20;99.90;;;;;;5016984;28;20513;-60
2023/03/12 02:35:38;;;;;;;2.50;1.97;;;2.20;99.90;;;;;;5017169;28;20446;-62
2023/03/12 02:38:36;;;;;;;5.03;1.57;;;2.10;99.90;;;;;;5009188;28;20435;-61
2023/03/12 02:41:11;;;;;;;2.33;1.50;;;2.20;99.90;;;;;;4999304;28;20422;-64
2023/03/12 02:43:38;;;;;;;1.10;0.90;;;2.20;99.90;;;;;;4997135;28;20485;-65
2023/03/12 02:46:07;;;;;;;1.93;1.23;;;2.20;99.90;;;;;;4997849;28;20446;-58
2023/03/12 02:48:34;;;;;;;1.40;1.10;;;2.20;99.90;;;;;;4997882;28;20551;-60
2023/03/12 02:51:03;;;;;;;7.13;1.03;;;2.20;99.90;;;;;;4998988;28;20538;-65
2023/03/12 02:53:30;;;;;;;4.20;1.43;;;2.10;99.90;;;;;;4998155;28;20478;-62
2023/03/12 02:55:57;;;;;;;5.27;1.23;;;2.00;99.90;;;;;;4997687;28;20422;-63
2023/03/12 02:58:25;;;;;;;5.03;1.10;;;2.00;99.90;;;;;;5002355;28;20479;-53
2023/03/12 03:00:54;;;;;;;2.80;1.43;;;2.00;99.90;;;;;;4999772;28;20461;-52
2023/03/12 03:03:21;;;;;;;2.43;1.00;;;2.00;99.90;;;;;;5016314;28;20446;-60
2023/03/12 03:05:47;;;;;;;1.30;0.93;;;2.00;99.90;;;;;;5014115;28;20505;-59
2023/03/12 03:08:14;;;;;;;5.37;2.50;;;1.90;99.90;;;;;;4996522;28;20471;-59
2023/03/12 03:10:41;;;;;;;2.13;1.63;;;1.90;99.90;;;;;;4994495;28;20491;-62
2023/03/12 03:13:08;;;;;;;1.87;1.30;;;1.90;99.90;;;;;;5014067;28;20470;-66
2023/03/12 03:15:37;;;;;;;11.70;1.70;;;1.90;99.90;;;;;;5016634;28;20446;-60
2023/03/12 03:18:04;;;;;;;2.07;1.30;;;1.80;99.90;;;;;;5008829;28;20483;-61
2023/03/12 03:20:31;;;;;;;2.73;1.00;;;1.70;99.90;;;;;;4996876;28;20462;-56
2023/03/12 03:22:58;;;;;;;2.03;1.37;;;1.80;99.90;;;;;;4996165;28;20478;-63
2023/03/12 03:25:25;;;;;;;1.50;1.10;;;1.60;99.90;;;;;;4995917;28;20447;-58
2023/03/12 03:27:52;;;;;;;2.50;1.50;;;1.70;99.90;;;;;;5001593;28;20490;-62
2023/03/12 03:30:20;;;;;;;1.50;1.37;;;1.60;99.90;;;;;;4995490;28;20533;-63
2023/03/12 03:32:49;;;;;;;3.87;1.10;;;1.60;99.90;;;;;;4996160;28;20447;-53
2023/03/12 03:35:16;;;;;;;1.80;1.23;;;1.70;99.90;;;;;;4995685;28;20447;-65
2023/03/12 03:37:43;;;;;;;2.03;1.40;;;1.60;99.90;;;;;;5005361;28;20481;-57
2023/03/12 03:40:11;;;;;;;2.50;1.60;;;1.60;99.90;;;;;;4995749;28;20462;-59
2023/03/12 03:42:39;;;;;;;1.97;1.53;;;1.50;99.90;;;;;;5008687;28;20915;-63
2023/03/12 03:45:08;;;;;;;4.20;1.47;;;1.50;99.90;;;;;;5014354;28;20462;-62
2023/03/12 03:47:35;;;;;;;2.73;1.90;;;1.50;99.90;;;;;;5011558;28;20938;-65
2023/03/12 03:50:04;;;;;;;4.20;1.30;;;1.50;99.90;;;;;;4993937;28;20474;-66
2023/03/12 03:52:31;;;;;;;2.17;1.60;;;1.40;99.90;;;;;;5007949;28;20466;-62
2023/03/12 03:55:00;;;;;;;4.03;1.37;;;1.50;99.90;;;;;;5014493;28;20450;-68
2023/03/12 03:57:27;;;;;;;1.13;0.90;;;1.40;99.90;;;;;;5007264;28;20470;-48
2023/03/12 03:59:54;;;;;;;1.60;1.30;;;1.40;99.90;;;;;;4995092;28;20458;-66
2023/03/12 04:02:21;;;;;;;2.10;1.60;;;1.50;99.90;;;;;;4995585;28;20442;-60
2023/03/12 04:04:50;;;;;;;3.83;1.27;;;1.40;99.90;;;;;;4995686;28;20450;-64
2023/03/12 04:07:19;;;;;;;4.20;1.50;;;1.40;99.90;;;;;;4995532;28;20427;-61
2023/03/12 04:09:46;;;;;;;2.33;1.70;;;1.40;99.90;;;;;;4995482;28;20454;-62
2023/03/12 04:12:13;;;;;;;8.17;1.90;;;1.40;99.90;;;;;;4995779;28;20474;-62
2023/03/12 04:14:41;;;;;;;2.80;1.27;;;1.40;99.90;;;;;;4994141;28;20450;-60
2023/03/12 04:17:10;;;;;;;3.53;1.47;;;1.40;99.90;;;;;;5003226;28;20457;-61
2023/03/12 04:19:39;;;;;;;2.67;1.67;;;1.40;99.90;;;;;;4996595;28;20551;-57
2023/03/12 04:22:06;;;;;;;1.97;1.10;;;1.40;99.90;;;;;;4997826;28;20482;-57
2023/03/12 04:24:34;;;;;;;3.50;1.63;;;1.30;99.90;;;;;;4996218;28;20450;-58
2023/03/12 04:27:01;;;;;;;5.50;2.07;;;1.30;99.90;;;;;;4999157;28;20447;-63
2023/03/12 04:29:28;;;;;;;2.47;1.60;;;1.40;99.90;;;;;;4996134;28;20442;-56
2023/03/12 04:31:58;;;;;;;5.07;1.50;;;1.30;99.90;;;;;;4995986;28;20526;-62
2023/03/12 04:34:24;;;;;;;1.50;1.40;;;1.30;99.90;;;;;;4995560;28;20455;-62
2023/03/12 04:36:54;;;;;;;3.43;1.87;;;1.20;99.90;;;;;;5001099;28;20450;-61
2023/03/12 04:39:21;;;;;;;2.40;1.97;;;1.20;99.90;;;;;;4998269;28;20469;-61
2023/03/12 04:41:49;;;;;;;3.50;2.13;;;1.20;99.90;;;;;;4996574;28;20467;-62
2023/03/12 04:44:16;;;;;;;2.63;1.93;;;1.20;99.90;;;;;;4996169;28;20459;-57
2023/03/12 04:46:43;;;;;;;3.70;2.80;;;1.20;99.90;;;;;;4998950;28;20433;-61
2023/03/12 04:49:10;;;;;;;11.03;1.87;;;1.20;99.90;;;;;;4999386;28;20462;-56
2023/03/12 04:51:37;;;;;;;4.43;1.97;;;1.20;99.90;;;;;;4995275;28;20529;-61
2023/03/12 04:54:04;;;;;;;4.03;2.17;;;1.20;99.90;;;;;;4995486;28;20479;-61
2023/03/12 04:56:33;;;;;;;1.47;1.03;;;1.10;99.90;;;;;;5001720;28;20442;-55
2023/03/12 04:59:02;;;;;;;4.87;2.93;;;1.10;99.90;;;;;;4995032;28;20482;-55
2023/03/12 05:01:31;;;;;;;3.77;2.10;;;1.10;99.90;;;;;;4994365;28;20451;-60
2023/03/12 05:04:01;;;;;;;3.77;2.60;;;1.10;99.90;;;;;;4998565;28;20447;-58
2023/03/12 05:06:28;;;;;;;2.50;2.00;;;1.10;99.90;;;;;;4999550;28;20481;-59
2023/03/12 05:08:54;;;;;;;8.70;2.10;;;1.10;99.90;;;;;;5004434;28;20451;-67
2023/03/12 05:11:22;;;;;;;3.60;2.00;;;1.10;99.90;;;;;;4998562;28;20581;-66
2023/03/12 05:13:50;;;;;;;4.47;2.00;;;1.00;99.90;;;;;;4998150;28;20588;-68
2023/03/12 05:16:18;;;;;;;3.07;1.93;;;1.00;99.90;;;;;;4997941;28;20470;-61
2023/03/12 05:18:46;;;;;;;3.80;3.00;;;1.00;99.90;;;;;;5005340;28;20463;-55
2023/03/12 05:21:15;;;;;;;4.50;2.53;;;1.10;99.90;;;;;;4999499;28;20466;-66
2023/03/12 05:23:46;;;;;;;2.20;1.73;;;1.10;99.90;;;;;;5016020;28;20458;-59
2023/03/12 05:26:18;;;;;;;8.70;3.83;;;1.10;99.90;;;;;;5017784;28;20508;-61
2023/03/12 05:28:45;;;;;;;3.20;2.27;;;1.20;99.90;;;;;;5015490;28;20457;-58
2023/03/12 05:31:12;;;;;;;6.43;2.63;;;1.20;99.90;;;;;;5018604;28;20457;-60
2023/03/12 05:33:45;;;;;;;5.93;1.77;;;1.20;99.90;;;;;;5017507;28;20490;-60
2023/03/12 05:36:13;;;;;;;2.80;2.50;;;1.20;99.90;;;;;;5018643;28;20410;-56
2023/03/12 05:38:41;;;;;;;4.13;2.00;;;1.20;99.90;;;;;;4999743;28;20986;-64
2023/03/12 05:41:10;;;;;;;2.70;2.00;;;1.20;99.90;;;;;;4995189;28;20450;-66
2023/03/12 05:43:37;;;;;;;2.93;1.83;;;1.20;99.90;;;;;;4995100;28;20443;-66
2023/03/12 05:46:07;;;;;;;2.97;1.43;;;1.10;99.90;;;;;;4996766;28;20466;-57
2023/03/12 05:48:33;;;;;;;2.33;1.80;;;1.50;99.90;;;;;;4998707;28;20442;-68
2023/03/12 05:51:02;;;;;;;15.10;2.67;;;1.20;99.90;;;;;;4995653;28;20509;-66
2023/03/12 05:53:29;;;;;;;4.40;1.80;;;1.20;99.90;;;;;;5009129;28;20449;-68
2023/03/12 05:56:03;;;;;;;3.80;2.00;;;1.20;99.90;;;;;;5015234;28;20470;-60
2023/03/12 05:58:30;;;;;;;3.30;2.10;;;1.20;99.90;;;;;;5004995;28;20496;-65
2023/03/12 06:00:57;;;;;;;1.50;1.20;;;1.10;99.90;;;;;;4995120;28;20451;-62
2023/03/12 06:03:24;;;;;;;5.70;1.70;;;1.20;99.90;;;;;;5008881;28;20434;-65
2023/03/12 06:05:53;;;;;;;6.90;2.07;;;1.20;99.90;;;;;;5013815;28;20477;-61
2023/03/12 06:08:24;;;;;;;3.13;1.73;;;1.20;99.90;;;;;;5007102;28;20498;-62
2023/03/12 06:10:52;;;;;;;2.87;2.07;;;1.20;99.90;;;;;;4998827;28;20450;-57
2023/03/12 06:13:18;;;;;;;7.00;1.93;;;1.20;99.90;;;;;;5009620;28;20529;-62
2023/03/12 06:15:45;;;;;;;2.20;1.53;;;1.20;99.90;;;;;;5017718;28;20458;-65
2023/03/12 06:18:12;;;;;;;2.03;1.70;;;1.30;99.90;;;;;;5010435;28;20451;-61
2023/03/12 06:20:42;;;;;;;2.30;1.90;;;1.30;99.90;;;;;;4994086;28;20955;-69
2023/03/12 06:23:09;;;;;;;2.33;1.60;;;1.30;99.90;;;;;;5003746;28;20469;-66
2023/03/12 06:25:37;;;;;;;2.60;1.63;;;1.40;99.90;;;;;;5014230;28;20465;-65
2023/03/12 06:28:04;;;;;;;1.63;1.27;;;1.30;99.90;;;;;;5008409;28;20454;-61
2023/03/12 06:30:31;;;;;;;2.57;1.23;;;1.30;99.90;;;;;;4994789;28;20497;-64
2023/03/12 06:32:58;;;;;;;2.70;2.10;;;1.30;99.90;;;;;;4994368;28;20466;-64
2023/03/12 06:35:25;;;;;;;1.97;1.50;;;1.30;99.90;;;;;;4997956;28;20446;-63
2023/03/12 06:37:52;;;;;;;3.33;1.77;;;1.30;99.90;;;;;;4996074;28;20462;-61
2023/03/12 06:40:21;;;;;;;3.70;2.10;;;1.40;99.90;;;;;;4996160;28;20482;-68
2023/03/12 06:42:49;;;;;;;2.33;1.53;;;1.40;99.90;;;;;;5004555;28;20458;-67
2023/03/12 06:45:16;;;;;;;2.40;1.60;;;1.40;99.90;;;;;;5014032;28;20450;-68
2023/03/12 06:47:43;;;;;;;5.00;1.93;;;1.50;99.90;;;;;;5007576;28;20490;-60
2023/03/12 06:50:10;;;;;;;4.03;1.80;;;1.50;99.90;;;;;;4993475;28;20510;-66
2023/03/12 06:52:39;;;;;;;2.50;1.80;;;1.60;99.90;;;;;;5007624;28;20510;-65
2023/03/12 06:55:07;;;;;;;5.20;1.93;;;1.80;99.90;;;;;;5013481;28;20426;-61
2023/03/12 06:57:33;;;;;;;3.77;1.93;;;1.80;99.90;;;;;;5010549;28;20454;-67
2023/03/12 07:00:02;;;;;;;8.93;2.70;;;1.90;99.90;;;;;;4993962;28;20474;-69
2023/03/12 07:02:29;;;;;;;4.90;2.93;;;1.90;99.90;;;;;;4994720;28;20473;-67
2023/03/12 07:04:55;;;;;;;5.80;2.50;;;2.00;99.90;;;;;;5012528;28;20928;-67
2023/03/12 07:07:22;;;;;;;3.70;2.20;;;2.00;99.90;;;;;;5010068;28;20458;-58
2023/03/12 07:09:52;;;;;;;3.20;2.17;;;2.10;99.90;;;;;;5010206;28;20450;-57
2023/03/12 07:12:19;;;;;;;2.10;1.53;;;2.80;99.90;;;;;;5014565;28;20459;-54
2023/03/12 07:14:46;;;;;;;3.13;1.90;;;2.30;99.90;;;;;;5015191;28;20442;-65
2023/03/12 07:17:14;;;;;;;4.27;2.07;;;2.30;99.90;;;;;;5014973;28;20439;-58
2023/03/12 07:19:41;;;;;;;4.13;2.53;;;2.40;99.90;;;;;;4992169;28;20443;-62
2023/03/12 07:22:08;;;;;;;3.73;2.70;;;2.50;99.90;;;;;;4994416;28;20551;-53
2023/03/12 07:24:35;;;;;;;2.43;1.60;;;2.50;99.90;;;;;;4991227;28;20451;-65
2023/03/12 07:27:02;;;;;;;4.90;1.63;;;2.50;99.90;;;;;;4991678;28;20505;-64
2023/03/12 07:29:29;;;;;;;3.93;2.73;;;2.50;99.90;;;;;;4991642;28;20450;-64
2023/03/12 07:31:56;;;;;;;3.70;1.97;;;2.60;99.90;;;;;;4996927;28;20517;-59
2023/03/12 07:34:25;;;;;;;3.03;2.03;;;2.60;99.90;;;;;;4997212;28;20467;-61
2023/03/12 07:36:52;;;;;;;3.37;2.20;;;2.70;99.90;;;;;;4995799;28;20435;-66
2023/03/12 07:39:19;;;;;;;3.37;2.27;;;2.70;99.90;;;;;;4991975;28;20495;-68
2023/03/12 07:41:46;;;;;;;2.00;1.33;;;2.70;99.90;;;;;;4990103;28;20450;-67
2023/03/12 07:44:12;;;;;;;3.23;1.90;;;2.80;99.90;;;;;;4992128;28;20899;-67
2023/03/12 07:46:39;;;;;;;2.17;1.60;;;2.80;99.90;;;;;;5004313;28;20482;-57
2023/03/12 07:49:11;;;;;;;3.17;2.10;;;2.80;99.90;;;;;;5011295;28;20465;-55
2023/03/12 07:51:39;;;;;;;3.57;2.33;;;2.80;99.90;;;;;;5008221;28;20434;-59
2023/03/12 07:54:06;;;;;;;2.20;1.33;;;2.80;99.90;;;;;;5002009;28;20509;-62
2023/03/12 07:56:33;;;;;;;2.43;1.70;;;2.80;99.90;;;;;;5011208;28;20423;-58
2023/03/12 07:59:00;;;;;;;4.27;1.93;;;2.70;99.90;;;;;;5002192;28;20473;-58
2023/03/12 08:01:30;;;;;;;3.70;2.00;;;2.80;99.90;;;;;;4995792;28;20447;-66
2023/03/12 08:03:57;;;;;;;1.67;1.47;;;2.90;99.90;;;;;;5001948;28;20525;-59
2023/03/12 08:06:24;;;;;;;1.90;1.47;;;2.90;99.90;;;;;;4992420;28;20466;-60
2023/03/12 08:08:53;;;;;;;1.47;1.33;;;3.00;99.90;;;;;;4990715;28;20885;-63
2023/03/12 08:11:20;;;;;;;3.20;2.27;;;3.10;99.90;;;;;;4997959;28;20474;-61
2023/03/12 08:13:47;;;;;;;2.70;1.90;;;3.10;99.90;;;;;;4999483;28;20489;-65
2023/03/12 08:16:17;;;;;;;3.33;2.47;;;3.20;99.90;;;;;;5013724;28;20447;-60
2023/03/12 08:18:44;;;;;;;3.60;1.60;;;3.30;99.90;;;;;;5012822;28;20541;-65
2023/03/12 08:21:13;;;;;;;3.80;1.70;;;3.40;99.90;;;;;;5004273;28;20450;-67
2023/03/12 08:23:40;;;;;;;8.13;1.53;;;3.40;99.90;;;;;;4998431;28;20474;-68
2023/03/12 08:26:08;;;;;;;2.27;1.60;;;3.50;99.90;;;;;;4995843;28;20454;-68
2023/03/12 08:28:35;;;;;;;2.00;1.80;;;3.50;99.90;;;;;;5002901;28;20439;-63
2023/03/12 08:31:02;;;;;;;2.23;1.40;;;3.60;99.90;;;;;;4992680;28;20474;-66
2023/03/12 08:33:29;;;;;;;2.77;1.77;;;3.70;99.90;;;;;;5000609;28;20477;-65
2023/03/12 08:35:56;;;;;;;2.30;1.60;;;3.70;99.90;;;;;;4998773;28;20466;-64
2023/03/12 08:38:23;;;;;;;3.53;1.53;;;3.80;99.90;;;;;;4998497;28;20848;-64
2023/03/12 08:40:56;;;;;;;4.93;2.13;;;3.90;99.90;;;;;;4999864;28;20442;-67
2023/03/12 08:43:25;;;;;;;6.13;2.43;;;3.90;99.90;;;;;;4996229;28;20478;-61
2023/03/12 08:45:55;;;;;;;3.13;1.70;;;4.10;99.90;;;;;;4995911;28;20509;-68
2023/03/12 08:48:22;;;;;;;2.10;1.57;;;4.30;99.90;;;;;;4990848;28;20506;-67
2023/03/12 08:50:49;;;;;;;3.00;2.13;;;4.60;99.90;;;;;;4999144;28;20465;-62
2023/03/12 08:53:16;;;;;;;2.80;1.60;;;4.90;99.90;;;;;;5002094;28;20475;-53
2023/03/12 08:55:44;;;;;;;5.80;2.53;;;5.30;99.90;;;;;;5015503;28;20435;-59
2023/03/12 08:58:11;;;;;;;1.73;1.57;;;5.90;99.90;;;;;;5001930;28;20423;-66
2023/03/12 09:00:39;;;;;;;3.77;2.03;;;6.40;99.90;;;;;;4998104;28;20856;-69
2023/03/12 09:03:06;;;;;;;3.50;1.80;;;6.70;99.90;;;;;;5005299;28;20537;-62
2023/03/12 09:05:33;;;;;;;9.93;1.97;;;7.00;99.90;;;;;;5003534;28;20471;-68
2023/03/12 09:08:00;;;;;;;3.50;1.53;;;7.10;99.90;;;;;;4995282;28;20457;-69
2023/03/12 09:10:27;;;;;;;5.73;2.00;;;7.40;99.90;;;;;;4999352;28;20532;-67
2023/03/12 09:12:54;;;;;;;3.83;2.67;;;7.70;99.90;;;;;;5001285;28;20497;-65
2023/03/12 09:15:21;;;;;;;10.00;2.40;;;8.30;99.90;;;;;;4999209;28;20467;-69
2023/03/12 09:17:49;;;;;;;3.70;1.53;;;9.30;99.90;;;;;;4995696;28;20481;-69
2023/03/12 09:20:16;;;;;;;3.57;3.27;;;10.80;99.90;;;;;;4990225;28;20461;-68
2023/03/12 09:22:44;;;;;;;7.10;2.10;;;11.30;99.50;;;;;;4998693;28;20637;-70
2023/03/12 09:25:12;;;;;;;1.93;1.63;;;12.00;94.60;;;;;;4999845;28;21183;-69
2023/03/12 09:27:40;;;;;;;4.53;2.77;;;12.70;90.20;;;;;;4996303;28;20465;-64
2023/03/12 09:30:09;;;;;;;2.30;1.80;;;13.50;86.10;;;;;;4991328;28;20441;-68
2023/03/12 09:32:36;;;;;;;3.00;1.70;;;14.10;77.90;;;;;;4987938;28;20482;-66
2023/03/12 09:35:05;;;;;;;2.33;1.70;;;14.00;75.00;;;;;;4993082;28;20471;-65
2023/03/12 09:37:32;;;;;;;2.90;1.60;;;13.30;77.60;;;;;;4990877;28;20855;-65
2023/03/12 09:40:00;;;;;;;3.10;1.80;;;12.80;79.70;;;;;;4992874;28;21038;-68
2023/03/12 09:42:34;;;;;;;4.47;2.17;;;12.30;79.60;;;;;;4999946;28;20480;-67
2023/03/12 09:45:05;;;;;;;3.93;1.90;;;11.80;84.70;;;;;;4995404;28;20474;-70
2023/03/12 09:47:35;;;;;;;4.30;2.33;;;11.30;87.50;;;;;;4980789;28;20462;-66
2023/03/12 09:50:17;;;;;;;4.20;1.83;;;11.00;91.10;;;;;;4981146;28;20525;-62
2023/03/12 09:52:51;;;;;;;3.90;1.10;;;11.20;90.20;;;;;;4989350;28;20485;-68
2023/03/12 09:55:20;;;;;;;2.63;1.83;;;11.70;86.50;;;;;;4981298;28;20459;-65
2023/03/12 09:57:49;;;;;;;3.37;1.13;;;12.10;82.10;;;;;;4979863;28;20446;-65
2023/03/12 10:00:19;;;;;;;3.13;1.07;;;12.60;80.90;;;;;;4979597;28;20571;-66
2023/03/12 10:03:10;;;;;;;3.20;2.20;;;13.50;77.90;;;;;;4979616;28;20932;-65
2023/03/12 10:05:45;;;;;;;4.90;1.70;;;14.20;73.20;;;;;;4979656;28;20435;-67
2023/03/12 10:08:20;;;;;;;4.07;2.03;;;15.00;69.30;;;;;;4978915;28;20479;-63
2023/03/12 10:10:54;;;;;;;3.10;1.00;;;15.20;65.80;;;;;;4978793;28;20944;-63
2023/03/12 10:13:40;;;;;;;2.43;1.37;;;15.10;63.10;;;;;;4986010;28;20534;-58
2023/03/12 10:16:18;;;;;;;2.97;1.70;;;14.70;63.30;;;;;;4996124;28;20500;-67
2023/03/12 10:19:04;;;;;;;3.67;1.70;;;14.40;65.20;;;;;;4992032;28;20514;-59
2023/03/12 10:21:39;;;;;;;2.77;1.47;;;14.20;66.80;;;;;;4996668;28;20465;-66
2023/03/12 10:24:22;;;;;;;4.33;1.50;;;13.70;66.90;;;;;;4992891;28;20879;-65
2023/03/12 10:26:51;;;;;;;2.73;2.10;;;13.40;69.60;;;;;;4981506;28;20542;-67
2023/03/12 10:29:22;;;;;;;5.00;1.40;;;13.00;70.90;;;;;;4994230;28;20454;-65
2023/03/12 10:31:54;;;;;;;6.57;1.87;;;12.70;73.00;;;;;;4994752;28;20526;-61
2023/03/12 10:34:28;;;;;;;1.50;1.37;;;12.50;76.90;;;;;;4988076;28;20521;-66
2023/03/12 10:37:00;;;;;;;1.90;1.53;;;12.60;76.20;;;;;;4988255;28;20493;-65
2023/03/12 10:39:27;;;;;;;1.93;1.40;;;12.30;77.40;;;;;;4997703;28;20507;-66
2023/03/12 10:41:56;;;;;;;2.17;1.50;;;12.00;76.60;;;;;;4998676;28;20502;-62
2023/03/12 10:44:25;;;;;;;2.10;1.73;;;11.80;77.40;;;;;;5008323;28;20461;-63
2023/03/12 10:47:06;;;;;;;4.63;1.40;;;11.20;80.20;;;;;;5011596;28;20437;-60
2023/03/12 10:49:35;;;;;;;1.63;1.20;;;10.80;83.50;;;;;;5008740;28;20451;-64
2023/03/12 10:52:07;;;;;;;3.70;1.50;;;10.60;85.80;;;;;;5007836;28;20461;-61
2023/03/12 10:54:36;;;;;;;1.37;1.27;;;10.50;87.40;;;;;;5005688;28;20474;-58
2023/03/12 10:57:04;;;;;;;4.03;1.30;;;10.80;88.90;;;;;;4998994;28;20458;-63
2023/03/12 10:59:34;;;;;;;2.20;1.33;;;11.30;89.30;;;;;;4984691;28;20455;-65
2023/03/12 11:02:02;;;;;;;3.23;1.50;;;11.70;87.10;;;;;;4988369;28;20995;-65
2023/03/12 11:04:31;;;;;;;2.27;1.73;;;12.20;81.20;;;;;;4994337;28;20528;-66
2023/03/12 11:07:19;;;;;;;2.30;1.20;;;12.20;80.70;;;;;;4989942;28;20445;-66
2023/03/12 11:09:46;;;;;;;2.93;1.80;;;12.30;79.60;;;;;;4991547;28;20943;-68
2023/03/12 11:12:29;;;;;;;1.63;1.47;;;12.10;76.90;;;;;;4986529;28;20455;-64
2023/03/12 11:14:57;;;;;;;3.23;1.70;;;11.50;77.40;;;;;;4992373;28;20787;-66
2023/03/12 11:17:25;;;;;;;2.60;1.73;;;11.20;82.50;;;;;;4998000;28;20453;-68
2023/03/12 11:19:52;;;;;;;3.63;1.90;;;11.00;83.80;;;;;;5006309;28;20538;-65
2023/03/12 11:22:33;;;;;;;7.13;1.73;;;10.60;84.90;;;;;;5009366;28;20453;-61
2023/03/12 11:25:02;;;;;;;2.67;1.70;;;10.40;85.60;;;;;;5006827;28;20476;-69
2023/03/12 11:27:40;;;;;;;5.50;2.87;;;10.20;84.40;;;;;;4999877;28;20485;-69
2023/03/12 11:30:11;;;;;;;2.70;1.70;;;9.80;87.00;;;;;;4998701;28;20429;-69
2023/03/12 11:32:42;;;;;;;5.00;2.10;;;9.80;87.10;;;;;;5016550;28;20473;-58
2023/03/12 11:35:10;;;;;;;4.50;1.80;;;9.90;87.40;;;;;;5012598;28;20438;-70
2023/03/12 11:37:48;;;;;;;5.27;2.00;;;9.70;87.10;;;;;;5008904;28;20453;-65
2023/03/12 11:40:28;;;;;;;5.20;3.27;;;9.60;85.70;;;;;;5017029;28;20454;-57
2023/03/12 11:43:13;;;;;;;5.97;2.77;;;9.60;82.30;;;;;;5008887;28;20504;-64
2023/03/12 11:45:53;;;;;;;17.00;5.90;;;9.30;82.80;;;;;;4987773;28;20418;-62
2023/03/12 11:48:24;;;;;;;3.73;1.87;;;9.20;86.30;;;;;;4993292;28;20483;-68
2023/03/12 11:51:02;;;;;;;3.23;2.33;;;9.00;87.90;;;;;;5000479;28;20509;-64
2023/03/12 11:53:49;;;;;;;4.33;2.80;;;9.00;85.80;;;;;;5005553;28;20674;-67
2023/03/12 11:56:26;;;;;;;32.40;8.20;;;8.90;86.10;;;;;;5001762;28;20469;-59
2023/03/12 11:59:23;;;;;;;8.13;1.90;;;8.70;89.30;;;;;;5002092;28;20452;-70
2023/03/12 12:01:58;;;;;;;4.80;2.03;;;8.50;91.30;;;;;;5000719;28;20527;-64
2023/03/12 12:05:04;;;;;;;5.60;2.57;;;8.60;90.20;;;;;;4999611;28;20850;-66
2023/03/12 12:07:45;;;;;;;8.37;2.53;;;8.60;91.20;;;;;;4983791;28;20482;-63
2023/03/12 12:10:27;;;;;;;3.97;2.07;;;8.40;78.80;;;;;;4998192;28;20534;-67
2023/03/12 12:13:02;;;;;;;10.77;2.70;;;8.50;78.20;;;;;;4997966;28;20521;-65
2023/03/12 12:15:38;;;;;;;7.20;2.23;;;8.60;81.40;;;;;;5011158;28;20472;-66
2023/03/12 12:18:20;;;;;;;4.97;2.50;;;8.80;84.90;;;;;;5012744;28;20457;-57
2023/03/12 12:20:55;;;;;;;4.50;2.23;;;8.80;84.00;;;;;;5000681;28;20476;-63
2023/03/12 12:23:35;;;;;;;5.90;2.50;;;8.90;81.50;;;;;;4996001;28;20433;-65
2023/03/12 12:26:09;;;;;;;4.90;1.83;;;8.70;79.90;;;;;;5003465;28;20440;-56
2023/03/12 12:28:54;;;;;;;6.83;3.00;;;8.70;82.50;;;;;;5000190;28;20770;-65
2023/03/12 12:31:34;;;;;;;6.47;2.63;;;8.70;83.30;;;;;;4995791;28;20423;-60
2023/03/12 12:34:13;;;;;;;2.47;2.07;;;8.80;83.10;;;;;;5000686;28;20485;-62
2023/03/12 12:36:44;;;;;;;6.00;2.37;;;8.70;75.20;;;;;;5012037;28;20513;-63
2023/03/12 12:39:15;;;;;;;5.43;2.90;;;8.70;73.90;;;;;;5005831;28;20416;-63
2023/03/12 12:41:50;;;;;;;7.80;2.73;;;8.50;74.20;;;;;;4999466;28;20458;-58
2023/03/12 12:44:23;;;;;;;2.40;1.80;;;8.50;73.90;;;;;;5010494;28;20449;-61
2023/03/12 12:47:15;;;;;;;9.87;3.53;;;8.50;73.50;;;;;;5006193;28;20431;-60
2023/03/12 12:49:47;;;;;;;47.87;14.83;;;8.50;78.40;;;;;;4997498;28;20521;-58
2023/03/12 12:52:18;;;;;;;5.77;2.90;;;8.60;99.90;;;;;;4987878;28;20457;-61
2023/03/12 12:54:54;;;;;;;10.63;3.33;;;8.70;90.70;;;;;;4992871;28;20564;-67
2023/03/12 12:57:27;;;;;;;5.10;2.30;;;8.70;83.10;;;;;;4988181;28;20446;-64
2023/03/12 13:00:11;;;;;;;4.77;2.73;;;8.70;79.90;;;;;;4995675;28;20496;-63
2023/03/12 13:02:41;;;;;;;4.73;2.10;;;8.60;80.00;;;;;;5000496;28;20472;-62
2023/03/12 13:05:21;;;;;;;2.37;1.70;;;8.50;75.10;;;;;;5000950;28;20473;-64
2023/03/12 13:07:48;;;;;;;6.77;2.97;;;8.50;75.90;;;;;;5010373;28;20479;-56
2023/03/12 13:10:42;;;;;;;6.07;3.13;;;8.50;77.60;;;;;;5016221;28;20465;-57